sensor_id;sensor_type;location;lat;lon;timestamp;pressure;altitude;pressure_sealevel;temperature;humidity
33185;BME280;19550;42.872;25.494;2024-03-08T00:01:54;96496.63;;;5.33;100.00
33185;BME280;19550;42.872;25.494;2024-03-08T00:04:21;96495.03;;;5.27;100.00
33185;BME280;19550;42.872;25.494;2024-03-08T00:06:48;96487.19;;;5.10;100.00
33185;BME280;19550;42.872;25.494;2024-03-08T00:09:16;96492.69;;;5.10;100.00
33185;BME280;19550;42.872;25.494;2024-03-08T00:11:43;96489.38;;;5.08;100.00
33185;BME280;19550;42.872;25.494;2024-03-08T00:14:10;96486.59;;;5.13;100.00
33185;BME280;19550;42.872;25.494;2024-03-08T00:16:37;96484.47;;;5.00;100.00
33185;BME280;19550;42.872;25.494;2024-03-08T00:19:05;96477.91;;;4.96;100.00
33185;BME280;19550;42.872;25.494;2024-03-08T00:21:32;96486.19;;;4.91;100.00
33185;BME280;19550;42.872;25.494;2024-03-08T00:23:58;96488.41;;;4.89;100.00
33185;BME280;19550;42.872;25.494;2024-03-08T00:26:25;96488.63;;;4.98;100.00
33185;BME280;19550;42.872;25.494;2024-03-08T00:28:52;96477.91;;;4.96;100.00
33185;BME280;19550;42.872;25.494;2024-03-08T00:31:19;96481.53;;;4.92;100.00
33185;BME280;19550;42.872;25.494;2024-03-08T00:33:46;96482.31;;;4.92;100.00
33185;BME280;19550;42.872;25.494;2024-03-08T00:36:14;96465.03;;;4.92;100.00
33185;BME280;19550;42.872;25.494;2024-03-08T00:38:41;96482.63;;;4.91;100.00
33185;BME280;19550;42.872;25.494;2024-03-08T00:41:08;96474.97;;;4.83;100.00
33185;BME280;19550;42.872;25.494;2024-03-08T00:43:34;96476.66;;;4.78;100.00
33185;BME280;19550;42.872;25.494;2024-03-08T00:46:01;96479.69;;;4.67;100.00
33185;BME280;19550;42.872;25.494;2024-03-08T00:48:28;96473.97;;;4.63;100.00
33185;BME280;19550;42.872;25.494;2024-03-08T00:50:57;96465.44;;;4.70;100.00
33185;BME280;19550;42.872;25.494;2024-03-08T00:53:25;96466.97;;;4.91;100.00
33185;BME280;19550;42.872;25.494;2024-03-08T00:55:52;96465.53;;;4.99;100.00
33185;BME280;19550;42.872;25.494;2024-03-08T00:58:20;96467.84;;;4.82;100.00
33185;BME280;19550;42.872;25.494;2024-03-08T01:00:50;96462.81;;;4.94;100.00
33185;BME280;19550;42.872;25.494;2024-03-08T01:03:16;96476.00;;;4.97;100.00
33185;BME280;19550;42.872;25.494;2024-03-08T01:05:43;96474.59;;;4.99;100.00
33185;BME280;19550;42.872;25.494;2024-03-08T01:08:10;96469.97;;;4.95;100.00
33185;BME280;19550;42.872;25.494;2024-03-08T01:10:39;96476.34;;;4.85;100.00
33185;BME280;19550;42.872;25.494;2024-03-08T01:13:05;96487.31;;;4.80;100.00
33185;BME280;19550;42.872;25.494;2024-03-08T01:15:32;96481.28;;;4.83;100.00
33185;BME280;19550;42.872;25.494;2024-03-08T01:17:59;96471.94;;;4.84;100.00
33185;BME280;19550;42.872;25.494;2024-03-08T01:20:26;96479.63;;;4.82;100.00
33185;BME280;19550;42.872;25.494;2024-03-08T01:22:53;96464.03;;;4.72;100.00
33185;BME280;19550;42.872;25.494;2024-03-08T01:25:20;96479.59;;;4.87;100.00
33185;BME280;19550;42.872;25.494;2024-03-08T01:27:49;96467.25;;;4.90;100.00
33185;BME280;19550;42.872;25.494;2024-03-08T01:30:16;96478.88;;;5.20;100.00
33185;BME280;19550;42.872;25.494;2024-03-08T01:32:43;96477.00;;;5.11;100.00
33185;BME280;19550;42.872;25.494;2024-03-08T01:35:10;96477.00;;;5.11;100.00
33185;BME280;19550;42.872;25.494;2024-03-08T01:37:37;96465.75;;;5.07;100.00
33185;BME280;19550;42.872;25.494;2024-03-08T01:40:05;96464.16;;;5.01;100.00
33185;BME280;19550;42.872;25.494;2024-03-08T01:42:32;96473.69;;;5.14;100.00
33185;BME280;19550;42.872;25.494;2024-03-08T01:45:00;96478.66;;;5.07;100.00
33185;BME280;19550;42.872;25.494;2024-03-08T01:47:28;96458.72;;;4.86;100.00
33185;BME280;19550;42.872;25.494;2024-03-08T01:49:55;96487.81;;;4.97;100.00
33185;BME280;19550;42.872;25.494;2024-03-08T01:52:22;96477.69;;;4.88;100.00
33185;BME280;19550;42.872;25.494;2024-03-08T01:54:50;96473.59;;;4.85;100.00
33185;BME280;19550;42.872;25.494;2024-03-08T01:57:17;96477.16;;;4.80;100.00
33185;BME280;19550;42.872;25.494;2024-03-08T01:59:44;96480.47;;;4.83;100.00
33185;BME280;19550;42.872;25.494;2024-03-08T02:02:14;96487.59;;;4.84;100.00
33185;BME280;19550;42.872;25.494;2024-03-08T02:04:45;96486.50;;;4.79;100.00
33185;BME280;19550;42.872;25.494;2024-03-08T02:07:13;96469.81;;;4.71;100.00
33185;BME280;19550;42.872;25.494;2024-03-08T02:09:39;96481.03;;;4.74;100.00
33185;BME280;19550;42.872;25.494;2024-03-08T02:12:07;96474.22;;;4.67;100.00
33185;BME280;19550;42.872;25.494;2024-03-08T02:14:34;96475.59;;;4.69;100.00
33185;BME280;19550;42.872;25.494;2024-03-08T02:17:02;96480.25;;;4.69;100.00
33185;BME280;19550;42.872;25.494;2024-03-08T02:19:31;96475.81;;;4.73;100.00
33185;BME280;19550;42.872;25.494;2024-03-08T02:22:00;96487.69;;;4.63;100.00
33185;BME280;19550;42.872;25.494;2024-03-08T02:24:29;96474.25;;;4.62;100.00
33185;BME280;19550;42.872;25.494;2024-03-08T02:26:56;96482.19;;;4.63;100.00
33185;BME280;19550;42.872;25.494;2024-03-08T02:29:23;96472.03;;;4.64;100.00
33185;BME280;19550;42.872;25.494;2024-03-08T02:31:50;96481.94;;;4.65;100.00
33185;BME280;19550;42.872;25.494;2024-03-08T02:34:18;96486.03;;;4.62;100.00
33185;BME280;19550;42.872;25.494;2024-03-08T02:36:45;96475.34;;;4.61;100.00
33185;BME280;19550;42.872;25.494;2024-03-08T02:39:13;96479.69;;;4.67;100.00
33185;BME280;19550;42.872;25.494;2024-03-08T02:41:41;96474.47;;;4.70;100.00
33185;BME280;19550;42.872;25.494;2024-03-08T02:44:09;96485.75;;;4.59;100.00
33185;BME280;19550;42.872;25.494;2024-03-08T02:46:37;96486.09;;;4.47;100.00
33185;BME280;19550;42.872;25.494;2024-03-08T02:49:04;96484.16;;;4.53;100.00
33185;BME280;19550;42.872;25.494;2024-03-08T02:51:33;96472.41;;;4.42;100.00
33185;BME280;19550;42.872;25.494;2024-03-08T02:54:00;96484.44;;;4.51;100.00
33185;BME280;19550;42.872;25.494;2024-03-08T02:56:30;96487.72;;;4.53;100.00
33185;BME280;19550;42.872;25.494;2024-03-08T02:59:00;96488.00;;;4.57;100.00
33185;BME280;19550;42.872;25.494;2024-03-08T03:01:27;96479.44;;;4.68;100.00
33185;BME280;19550;42.872;25.494;2024-03-08T03:03:53;96479.66;;;4.77;100.00
33185;BME280;19550;42.872;25.494;2024-03-08T03:06:20;96476.06;;;4.82;100.00
33185;BME280;19550;42.872;25.494;2024-03-08T03:08:47;96482.94;;;4.84;100.00
33185;BME280;19550;42.872;25.494;2024-03-08T03:11:14;96485.41;;;4.80;100.00
33185;BME280;19550;42.872;25.494;2024-03-08T03:13:42;96476.91;;;4.77;100.00
33185;BME280;19550;42.872;25.494;2024-03-08T03:16:17;96476.09;;;4.76;100.00
33185;BME280;19550;42.872;25.494;2024-03-08T03:18:45;96478.28;;;4.74;100.00
33185;BME280;19550;42.872;25.494;2024-03-08T03:21:12;96470.88;;;4.75;100.00
33185;BME280;19550;42.872;25.494;2024-03-08T03:23:38;96475.81;;;4.73;100.00
33185;BME280;19550;42.872;25.494;2024-03-08T03:26:07;96477.47;;;4.74;100.00
33185;BME280;19550;42.872;25.494;2024-03-08T03:28:34;96468.72;;;4.67;100.00
33185;BME280;19550;42.872;25.494;2024-03-08T03:31:06;96470.63;;;4.71;100.00
33185;BME280;19550;42.872;25.494;2024-03-08T03:33:32;96477.75;;;4.72;100.00
33185;BME280;19550;42.872;25.494;2024-03-08T03:36:02;96476.13;;;4.66;100.00
33185;BME280;19550;42.872;25.494;2024-03-08T03:38:30;96474.78;;;4.64;100.00
33185;BME280;19550;42.872;25.494;2024-03-08T03:40:57;96473.97;;;4.63;100.00
33185;BME280;19550;42.872;25.494;2024-03-08T03:43:29;96476.72;;;4.63;100.00
33185;BME280;19550;42.872;25.494;2024-03-08T03:45:56;96477.25;;;4.60;100.00
33185;BME280;19550;42.872;25.494;2024-03-08T03:48:24;96468.22;;;4.55;100.00
33185;BME280;19550;42.872;25.494;2024-03-08T03:50:51;96472.31;;;4.62;100.00
33185;BME280;19550;42.872;25.494;2024-03-08T03:53:18;96472.88;;;4.59;100.00
33185;BME280;19550;42.872;25.494;2024-03-08T03:55:45;96471.47;;;4.72;100.00
33185;BME280;19550;42.872;25.494;2024-03-08T03:58:12;96480.50;;;4.72;100.00
33185;BME280;19550;42.872;25.494;2024-03-08T04:00:39;96484.38;;;4.71;100.00
33185;BME280;19550;42.872;25.494;2024-03-08T04:03:06;96489.84;;;4.66;100.00
33185;BME280;19550;42.872;25.494;2024-03-08T04:05:35;96485.47;;;4.65;100.00
33185;BME280;19550;42.872;25.494;2024-03-08T04:08:02;96489.56;;;4.78;100.00
33185;BME280;19550;42.872;25.494;2024-03-08T04:10:29;96494.22;;;4.77;100.00
33185;BME280;19550;42.872;25.494;2024-03-08T04:12:57;96488.44;;;4.84;100.00
33185;BME280;19550;42.872;25.494;2024-03-08T04:15:23;96486.75;;;4.88;100.00
33185;BME280;19550;42.872;25.494;2024-03-08T04:17:50;96484.00;;;4.88;100.00
33185;BME280;19550;42.872;25.494;2024-03-08T04:20:17;96491.66;;;4.96;100.00
33185;BME280;19550;42.872;25.494;2024-03-08T04:22:46;96503.47;;;4.97;100.00
33185;BME280;19550;42.872;25.494;2024-03-08T04:25:14;96500.13;;;5.00;100.00
33185;BME280;19550;42.872;25.494;2024-03-08T04:27:41;96498.28;;;4.90;100.00
33185;BME280;19550;42.872;25.494;2024-03-08T04:30:09;96500.47;;;4.88;100.00
33185;BME280;19550;42.872;25.494;2024-03-08T04:32:36;96498.00;;;4.87;100.00
33185;BME280;19550;42.872;25.494;2024-03-08T04:35:03;96501.56;;;4.87;100.00
33185;BME280;19550;42.872;25.494;2024-03-08T04:37:30;96503.50;;;4.87;100.00
33185;BME280;19550;42.872;25.494;2024-03-08T04:39:58;96498.91;;;4.72;100.00
33185;BME280;19550;42.872;25.494;2024-03-08T04:42:25;96510.97;;;4.76;100.00
33185;BME280;19550;42.872;25.494;2024-03-08T04:44:54;96506.88;;;4.68;100.00
33185;BME280;19550;42.872;25.494;2024-03-08T04:47:21;96507.16;;;4.72;100.00
33185;BME280;19550;42.872;25.494;2024-03-08T04:49:47;96520.56;;;4.73;100.00
33185;BME280;19550;42.872;25.494;2024-03-08T04:52:16;96513.13;;;4.79;100.00
33185;BME280;19550;42.872;25.494;2024-03-08T04:54:43;96520.59;;;4.78;100.00
33185;BME280;19550;42.872;25.494;2024-03-08T04:57:14;96512.63;;;4.77;100.00
33185;BME280;19550;42.872;25.494;2024-03-08T04:59:43;96520.56;;;4.73;100.00
33185;BME280;19550;42.872;25.494;2024-03-08T05:02:10;96518.72;;;4.64;100.00
33185;BME280;19550;42.872;25.494;2024-03-08T05:04:37;96522.56;;;4.63;100.00
33185;BME280;19550;42.872;25.494;2024-03-08T05:07:04;96524.72;;;4.66;100.00
33185;BME280;19550;42.872;25.494;2024-03-08T05:09:30;96531.91;;;4.57;100.00
33185;BME280;19550;42.872;25.494;2024-03-08T05:11:58;96519.53;;;4.59;100.00
33185;BME280;19550;42.872;25.494;2024-03-08T05:14:26;96527.78;;;4.64;100.00
33185;BME280;19550;42.872;25.494;2024-03-08T05:16:53;96539.28;;;4.66;100.00
33185;BME280;19550;42.872;25.494;2024-03-08T05:19:20;96532.44;;;4.59;100.00
33185;BME280;19550;42.872;25.494;2024-03-08T05:21:48;96535.47;;;4.52;100.00
33185;BME280;19550;42.872;25.494;2024-03-08T05:24:15;96539.88;;;4.58;100.00
33185;BME280;19550;42.872;25.494;2024-03-08T05:26:42;96534.38;;;4.58;100.00
33185;BME280;19550;42.872;25.494;2024-03-08T05:29:10;96546.47;;;4.57;100.00
33185;BME280;19550;42.872;25.494;2024-03-08T05:31:45;96548.38;;;4.57;100.00
33185;BME280;19550;42.872;25.494;2024-03-08T05:34:13;96553.31;;;4.65;100.00
33185;BME280;19550;42.872;25.494;2024-03-08T05:36:40;96543.34;;;4.84;100.00
33185;BME280;19550;42.872;25.494;2024-03-08T05:39:10;96553.81;;;4.77;100.00
33185;BME280;19550;42.872;25.494;2024-03-08T05:41:37;96556.56;;;4.77;100.00
33185;BME280;19550;42.872;25.494;2024-03-08T05:44:04;96552.69;;;4.73;100.00
33185;BME280;19550;42.872;25.494;2024-03-08T05:46:31;96557.97;;;4.64;100.00
33185;BME280;19550;42.872;25.494;2024-03-08T05:49:00;96560.41;;;4.71;100.00
33185;BME280;19550;42.872;25.494;2024-03-08T05:51:30;96559.28;;;4.77;100.00
33185;BME280;19550;42.872;25.494;2024-03-08T05:54:00;96559.84;;;4.74;100.00
33185;BME280;19550;42.872;25.494;2024-03-08T05:56:31;96564.78;;;4.77;100.00
33185;BME280;19550;42.872;25.494;2024-03-08T05:58:58;96568.06;;;4.84;100.00
33185;BME280;19550;42.872;25.494;2024-03-08T06:01:26;96565.59;;;4.77;100.00
33185;BME280;19550;42.872;25.494;2024-03-08T06:03:53;96578.50;;;4.82;100.00
33185;BME280;19550;42.872;25.494;2024-03-08T06:06:22;96572.09;;;5.02;100.00
33185;BME280;19550;42.872;25.494;2024-03-08T06:08:49;96574.06;;;4.96;100.00
33185;BME280;19550;42.872;25.494;2024-03-08T06:11:17;96575.41;;;4.99;100.00
33185;BME280;19550;42.872;25.494;2024-03-08T06:13:44;96579.78;;;5.00;100.00
33185;BME280;19550;42.872;25.494;2024-03-08T06:16:11;96580.94;;;4.89;100.00
33185;BME280;19550;42.872;25.494;2024-03-08T06:18:38;96589.41;;;5.02;100.00
33185;BME280;19550;42.872;25.494;2024-03-08T06:21:05;96583.34;;;5.00;100.00
33185;BME280;19550;42.872;25.494;2024-03-08T06:23:34;96590.47;;;5.06;100.00
33185;BME280;19550;42.872;25.494;2024-03-08T06:26:04;96597.66;;;4.97;100.00
33185;BME280;19550;42.872;25.494;2024-03-08T06:28:31;96585.34;;;4.90;100.00
33185;BME280;19550;42.872;25.494;2024-03-08T06:30:58;96599.63;;;4.82;100.00
33185;BME280;19550;42.872;25.494;2024-03-08T06:33:25;96597.19;;;4.75;100.00
33185;BME280;19550;42.872;25.494;2024-03-08T06:35:52;96598.81;;;4.81;100.00
33185;BME280;19550;42.872;25.494;2024-03-08T06:38:20;96595.78;;;4.83;100.00
33185;BME280;19550;42.872;25.494;2024-03-08T06:40:48;96598.25;;;4.79;100.00
33185;BME280;19550;42.872;25.494;2024-03-08T06:43:16;96601.56;;;4.76;100.00
33185;BME280;19550;42.872;25.494;2024-03-08T06:45:46;96601.03;;;4.74;100.00
33185;BME280;19550;42.872;25.494;2024-03-08T06:48:15;96607.59;;;4.83;100.00
33185;BME280;19550;42.872;25.494;2024-03-08T06:50:42;96608.13;;;4.90;100.00
33185;BME280;19550;42.872;25.494;2024-03-08T06:53:09;96604.53;;;4.95;100.00
33185;BME280;19550;42.872;25.494;2024-03-08T06:55:36;96612.50;;;4.96;100.00
33185;BME280;19550;42.872;25.494;2024-03-08T06:58:05;96611.69;;;4.91;100.00
33185;BME280;19550;42.872;25.494;2024-03-08T07:00:32;96621.28;;;5.03;100.00
33185;BME280;19550;42.872;25.494;2024-03-08T07:02:59;96627.31;;;5.00;100.00
33185;BME280;19550;42.872;25.494;2024-03-08T07:05:26;96630.91;;;4.96;100.00
33185;BME280;19550;42.872;25.494;2024-03-08T07:07:53;96626.25;;;4.86;100.00
33185;BME280;19550;42.872;25.494;2024-03-08T07:10:20;96628.47;;;4.79;100.00
33185;BME280;19550;42.872;25.494;2024-03-08T07:12:49;96633.16;;;4.78;100.00
33185;BME280;19550;42.872;25.494;2024-03-08T07:15:18;96627.97;;;4.72;100.00
33185;BME280;19550;42.872;25.494;2024-03-08T07:17:45;96640.81;;;4.82;100.00
33185;BME280;19550;42.872;25.494;2024-03-08T07:20:12;96636.13;;;4.87;100.00
33185;BME280;19550;42.872;25.494;2024-03-08T07:22:40;96637.28;;;4.61;100.00
33185;BME280;19550;42.872;25.494;2024-03-08T07:25:08;96641.97;;;4.60;100.00
33185;BME280;19550;42.872;25.494;2024-03-08T07:27:46;96643.84;;;4.75;100.00
33185;BME280;19550;42.872;25.494;2024-03-08T07:30:13;96654.03;;;4.74;100.00
33185;BME280;19550;42.872;25.494;2024-03-08T07:33:02;96649.91;;;4.72;100.00
33185;BME280;19550;42.872;25.494;2024-03-08T07:35:29;96652.91;;;4.75;100.00
33185;BME280;19550;42.872;25.494;2024-03-08T07:37:56;96656.78;;;4.69;100.00
33185;BME280;19550;42.872;25.494;2024-03-08T07:40:25;96659.53;;;4.64;100.00
33185;BME280;19550;42.872;25.494;2024-03-08T07:42:52;96652.66;;;4.67;100.00
33185;BME280;19550;42.872;25.494;2024-03-08T07:45:18;96657.06;;;4.68;100.00
33185;BME280;19550;42.872;25.494;2024-03-08T07:47:47;96654.03;;;4.69;100.00
33185;BME280;19550;42.872;25.494;2024-03-08T07:50:15;96668.28;;;4.66;100.00
33185;BME280;19550;42.872;25.494;2024-03-08T07:52:42;96667.75;;;4.69;100.00
33185;BME280;19550;42.872;25.494;2024-03-08T07:55:09;96665.84;;;4.65;100.00
33185;BME280;19550;42.872;25.494;2024-03-08T07:57:36;96661.94;;;4.86;100.00
33185;BME280;19550;42.872;25.494;2024-03-08T08:00:05;96667.72;;;4.79;100.00
33185;BME280;19550;42.872;25.494;2024-03-08T08:02:33;96671.84;;;4.82;100.00
33185;BME280;19550;42.872;25.494;2024-03-08T08:05:00;96679.56;;;4.70;100.00
33185;BME280;19550;42.872;25.494;2024-03-08T08:07:31;96665.28;;;4.73;100.00
33185;BME280;19550;42.872;25.494;2024-03-08T08:09:58;96676.25;;;4.68;100.00
33185;BME280;19550;42.872;25.494;2024-03-08T08:12:25;96671.59;;;4.73;100.00
33185;BME280;19550;42.872;25.494;2024-03-08T08:14:53;96675.97;;;4.74;100.00
33185;BME280;19550;42.872;25.494;2024-03-08T08:17:20;96666.09;;;4.73;100.00
33185;BME280;19550;42.872;25.494;2024-03-08T08:19:47;96674.63;;;4.77;100.00
33185;BME280;19550;42.872;25.494;2024-03-08T08:22:14;96683.41;;;4.59;100.00
33185;BME280;19550;42.872;25.494;2024-03-08T08:24:42;96686.16;;;4.64;100.00
33185;BME280;19550;42.872;25.494;2024-03-08T08:27:09;96690.53;;;4.70;100.00
33185;BME280;19550;42.872;25.494;2024-03-08T08:29:37;96682.28;;;4.80;100.00
33185;BME280;19550;42.872;25.494;2024-03-08T08:32:04;96678.44;;;4.91;100.00
33185;BME280;19550;42.872;25.494;2024-03-08T08:34:32;96686.13;;;4.89;100.00
33185;BME280;19550;42.872;25.494;2024-03-08T08:36:59;96679.78;;;4.94;100.00
33185;BME280;19550;42.872;25.494;2024-03-08T08:39:26;96694.91;;;4.96;100.00
33185;BME280;19550;42.872;25.494;2024-03-08T08:41:54;96689.97;;;4.83;100.00
33185;BME280;19550;42.872;25.494;2024-03-08T08:44:21;96693.50;;;4.99;100.00
33185;BME280;19550;42.872;25.494;2024-03-08T08:46:48;96698.47;;;4.97;100.00
33185;BME280;19550;42.872;25.494;2024-03-08T08:49:15;96697.38;;;4.93;100.00
33185;BME280;19550;42.872;25.494;2024-03-08T08:51:48;96689.97;;;4.88;100.00
33185;BME280;19550;42.872;25.494;2024-03-08T08:54:15;96692.16;;;4.86;100.00
33185;BME280;19550;42.872;25.494;2024-03-08T08:56:43;96691.59;;;4.99;100.00
33185;BME280;19550;42.872;25.494;2024-03-08T08:59:11;96689.94;;;4.93;100.00
33185;BME280;19550;42.872;25.494;2024-03-08T09:01:39;96692.44;;;4.95;100.00
33185;BME280;19550;42.872;25.494;2024-03-08T09:04:06;96696.25;;;4.99;100.00
33185;BME280;19550;42.872;25.494;2024-03-08T09:06:33;96696.19;;;5.19;100.00
33185;BME280;19550;42.872;25.494;2024-03-08T09:09:01;96698.41;;;5.22;100.00
33185;BME280;19550;42.872;25.494;2024-03-08T09:11:29;96698.94;;;5.19;100.00
33185;BME280;19550;42.872;25.494;2024-03-08T09:13:56;96689.31;;;5.32;100.00
33185;BME280;19550;42.872;25.494;2024-03-08T09:16:26;96690.19;;;5.17;100.00
33185;BME280;19550;42.872;25.494;2024-03-08T09:18:52;96696.22;;;5.24;100.00
33185;BME280;19550;42.872;25.494;2024-03-08T09:21:19;96693.94;;;5.41;100.00
33185;BME280;19550;42.872;25.494;2024-03-08T09:23:47;96704.09;;;5.46;100.00
33185;BME280;19550;42.872;25.494;2024-03-08T09:26:14;96698.94;;;5.19;100.00
33185;BME280;19550;42.872;25.494;2024-03-08T09:28:41;96711.59;;;5.30;100.00
33185;BME280;19550;42.872;25.494;2024-03-08T09:31:07;96709.63;;;5.36;100.00
33185;BME280;19550;42.872;25.494;2024-03-08T09:33:37;96719.81;;;5.35;100.00
33185;BME280;19550;42.872;25.494;2024-03-08T09:36:05;96711.00;;;5.33;100.00
33185;BME280;19550;42.872;25.494;2024-03-08T09:38:33;96715.94;;;5.41;100.00
33185;BME280;19550;42.872;25.494;2024-03-08T09:41:00;96717.00;;;5.50;100.00
33185;BME280;19550;42.872;25.494;2024-03-08T09:43:29;96715.09;;;5.51;100.00
33185;BME280;19550;42.872;25.494;2024-03-08T09:45:57;96714.81;;;5.47;100.00
33185;BME280;19550;42.872;25.494;2024-03-08T09:48:25;96718.69;;;5.41;100.00
33185;BME280;19550;42.872;25.494;2024-03-08T09:50:54;96720.59;;;5.51;100.00
33185;BME280;19550;42.872;25.494;2024-03-08T09:53:22;96721.66;;;5.55;100.00
33185;BME280;19550;42.872;25.494;2024-03-08T09:55:49;96718.97;;;5.45;100.00
33185;BME280;19550;42.872;25.494;2024-03-08T09:58:17;96714.84;;;5.42;100.00
33185;BME280;19550;42.872;25.494;2024-03-08T10:01:02;96732.16;;;5.33;100.00
33185;BME280;19550;42.872;25.494;2024-03-08T10:03:30;96725.56;;;5.44;100.00
33185;BME280;19550;42.872;25.494;2024-03-08T10:05:59;96725.03;;;5.37;100.00
33185;BME280;19550;42.872;25.494;2024-03-08T10:08:26;96728.84;;;5.41;100.00
33185;BME280;19550;42.872;25.494;2024-03-08T10:10:54;96730.53;;;5.37;100.00
33185;BME280;19550;42.872;25.494;2024-03-08T10:13:24;96731.09;;;5.29;100.00
33185;BME280;19550;42.872;25.494;2024-03-08T10:15:52;96726.41;;;5.34;100.00
33185;BME280;19550;42.872;25.494;2024-03-08T10:18:19;96729.97;;;5.35;100.00
33185;BME280;19550;42.872;25.494;2024-03-08T10:20:47;96725.63;;;5.24;100.00
33185;BME280;19550;42.872;25.494;2024-03-08T10:23:30;96721.50;;;5.21;100.00
33185;BME280;19550;42.872;25.494;2024-03-08T10:26:09;96725.91;;;5.07;100.00
33185;BME280;19550;42.872;25.494;2024-03-08T10:28:36;96719.88;;;5.10;100.00
33185;BME280;19550;42.872;25.494;2024-03-08T10:31:03;96724.81;;;5.18;100.00
33185;BME280;19550;42.872;25.494;2024-03-08T10:33:31;96724.50;;;5.30;100.00
33185;BME280;19550;42.872;25.494;2024-03-08T10:35:59;96720.66;;;5.20;100.00
33185;BME280;19550;42.872;25.494;2024-03-08T10:38:26;96720.06;;;5.34;100.00
33185;BME280;19550;42.872;25.494;2024-03-08T10:40:55;96725.09;;;5.06;100.00
33185;BME280;19550;42.872;25.494;2024-03-08T10:43:24;96728.13;;;5.10;100.00
33185;BME280;19550;42.872;25.494;2024-03-08T10:46:03;96720.66;;;5.31;100.00
33185;BME280;19550;42.872;25.494;2024-03-08T10:48:41;96716.28;;;5.25;100.00
33185;BME280;19550;42.872;25.494;2024-03-08T10:51:11;96716.25;;;5.19;100.00
33185;BME280;19550;42.872;25.494;2024-03-08T10:53:39;96720.63;;;5.26;100.00
33185;BME280;19550;42.872;25.494;2024-03-08T10:56:08;96713.25;;;5.16;100.00
33185;BME280;19550;42.872;25.494;2024-03-08T10:58:36;96723.13;;;5.22;100.00
33185;BME280;19550;42.872;25.494;2024-03-08T11:01:03;96721.19;;;5.28;100.00
33185;BME280;19550;42.872;25.494;2024-03-08T11:03:44;96721.44;;;5.36;100.00
33185;BME280;19550;42.872;25.494;2024-03-08T11:06:15;96722.81;;;5.44;100.00
33185;BME280;19550;42.872;25.494;2024-03-08T11:08:43;96722.78;;;5.49;100.00
33185;BME280;19550;42.872;25.494;2024-03-08T11:11:25;96714.56;;;5.34;100.00
33185;BME280;19550;42.872;25.494;2024-03-08T11:13:55;96716.25;;;5.30;100.00
33185;BME280;19550;42.872;25.494;2024-03-08T11:16:39;96708.84;;;5.30;100.00
33185;BME280;19550;42.872;25.494;2024-03-08T11:19:25;96710.75;;;5.19;100.00
33185;BME280;19550;42.872;25.494;2024-03-08T11:21:58;96712.38;;;5.36;100.00
33185;BME280;19550;42.872;25.494;2024-03-08T11:24:25;96711.84;;;5.34;100.00
33185;BME280;19550;42.872;25.494;2024-03-08T11:26:57;96716.72;;;5.47;100.00
33185;BME280;19550;42.872;25.494;2024-03-08T11:29:35;96713.72;;;5.48;100.00
33185;BME280;19550;42.872;25.494;2024-03-08T11:32:05;96722.22;;;5.47;100.00
33185;BME280;19550;42.872;25.494;2024-03-08T11:34:32;96715.66;;;5.43;100.00
33185;BME280;19550;42.872;25.494;2024-03-08T11:36:59;96716.50;;;5.33;100.00
33185;BME280;19550;42.872;25.494;2024-03-08T11:39:26;96713.75;;;5.43;100.00
33185;BME280;19550;42.872;25.494;2024-03-08T11:41:56;96714.06;;;5.32;100.00
33185;BME280;19550;42.872;25.494;2024-03-08T11:44:26;96716.78;;;5.37;100.00
33185;BME280;19550;42.872;25.494;2024-03-08T11:46:54;96710.75;;;5.19;100.00
33185;BME280;19550;42.872;25.494;2024-03-08T11:49:21;96720.38;;;5.27;100.00
33185;BME280;19550;42.872;25.494;2024-03-08T11:51:51;96715.69;;;5.28;100.00
33185;BME280;19550;42.872;25.494;2024-03-08T11:54:19;96704.16;;;5.31;100.00
33185;BME280;19550;42.872;25.494;2024-03-08T11:56:46;96715.72;;;5.23;100.00
33185;BME280;19550;42.872;25.494;2024-03-08T11:59:15;96703.06;;;5.27;100.00
33185;BME280;19550;42.872;25.494;2024-03-08T12:01:43;96709.63;;;5.36;100.00
33185;BME280;19550;42.872;25.494;2024-03-08T12:04:12;96698.91;;;5.34;100.00
33185;BME280;19550;42.872;25.494;2024-03-08T12:06:40;96713.22;;;5.36;100.00
33185;BME280;19550;42.872;25.494;2024-03-08T12:09:10;96711.84;;;5.34;100.00
33185;BME280;19550;42.872;25.494;2024-03-08T12:11:38;96708.81;;;5.35;100.00
33185;BME280;19550;42.872;25.494;2024-03-08T12:14:06;96714.34;;;5.30;100.00
33185;BME280;19550;42.872;25.494;2024-03-08T12:16:36;96713.53;;;5.25;100.00
33185;BME280;19550;42.872;25.494;2024-03-08T12:19:02;96707.50;;;5.17;100.00
33185;BME280;19550;42.872;25.494;2024-03-08T12:21:31;96713.22;;;5.26;100.00
33185;BME280;19550;42.872;25.494;2024-03-08T12:24:05;96715.16;;;5.26;100.00
33185;BME280;19550;42.872;25.494;2024-03-08T12:26:35;96715.69;;;5.33;100.00
33185;BME280;19550;42.872;25.494;2024-03-08T12:29:16;96709.44;;;5.02;100.00
33185;BME280;19550;42.872;25.494;2024-03-08T12:31:47;96711.38;;;5.01;100.00
33185;BME280;19550;42.872;25.494;2024-03-08T12:34:14;96709.69;;;5.05;100.00
33185;BME280;19550;42.872;25.494;2024-03-08T12:36:45;96708.09;;;4.84;100.00
33185;BME280;19550;42.872;25.494;2024-03-08T12:39:18;96713.59;;;4.84;100.00
33185;BME280;19550;42.872;25.494;2024-03-08T12:41:48;96711.97;;;4.78;100.00
33185;BME280;19550;42.872;25.494;2024-03-08T12:44:18;96706.16;;;4.79;100.00
33185;BME280;19550;42.872;25.494;2024-03-08T12:46:57;96705.09;;;4.75;100.00
33185;BME280;19550;42.872;25.494;2024-03-08T12:49:27;96717.72;;;4.92;100.00
33185;BME280;19550;42.872;25.494;2024-03-08T12:51:56;96701.22;;;4.97;100.00
33185;BME280;19550;42.872;25.494;2024-03-08T12:54:37;96676.50;;;4.87;100.00
33185;BME280;19550;42.872;25.494;2024-03-08T12:57:08;96703.66;;;5.08;100.00